sensor_id;sensor_type;location;lat;lon;timestamp;P1;durP1;ratioP1;P2;durP2;ratioP2
26806;SDS011;14380;49.910;6.792;2023-02-28T00:01:03;3.03;;;1.75;;
26806;SDS011;14380;49.910;6.792;2023-02-28T00:03:30;2.22;;;1.13;;
26806;SDS011;14380;49.910;6.792;2023-02-28T00:06:00;2.20;;;1.30;;
26806;SDS011;14380;49.910;6.792;2023-02-28T00:08:26;2.25;;;1.08;;
26806;SDS011;14380;49.910;6.792;2023-02-28T00:10:54;2.85;;;1.02;;
26806;SDS011;14380;49.910;6.792;2023-02-28T00:13:21;2.42;;;1.20;;
26806;SDS011;14380;49.910;6.792;2023-02-28T00:15:57;4.10;;;1.23;;
26806;SDS011;14380;49.910;6.792;2023-02-28T00:18:25;3.13;;;1.00;;
26806;SDS011;14380;49.910;6.792;2023-02-28T00:20:52;1.77;;;0.90;;
26806;SDS011;14380;49.910;6.792;2023-02-28T00:23:18;2.28;;;1.02;;
26806;SDS011;14380;49.910;6.792;2023-02-28T00:25:45;1.83;;;1.08;;
26806;SDS011;14380;49.910;6.792;2023-02-28T00:28:13;2.35;;;1.10;;
26806;SDS011;14380;49.910;6.792;2023-02-28T00:30:40;3.08;;;1.13;;
26806;SDS011;14380;49.910;6.792;2023-02-28T00:33:07;5.60;;;1.45;;
26806;SDS011;14380;49.910;6.792;2023-02-28T00:35:33;3.30;;;1.17;;
26806;SDS011;14380;49.910;6.792;2023-02-28T00:38:00;2.63;;;1.45;;
26806;SDS011;14380;49.910;6.792;2023-02-28T00:40:27;8.30;;;1.52;;
26806;SDS011;14380;49.910;6.792;2023-02-28T00:42:54;1.38;;;1.15;;
26806;SDS011;14380;49.910;6.792;2023-02-28T00:45:22;1.90;;;1.23;;
26806;SDS011;14380;49.910;6.792;2023-02-28T00:47:49;5.10;;;1.38;;
26806;SDS011;14380;49.910;6.792;2023-02-28T00:50:16;2.30;;;1.17;;
26806;SDS011;14380;49.910;6.792;2023-02-28T00:52:43;2.55;;;1.23;;
26806;SDS011;14380;49.910;6.792;2023-02-28T00:55:10;3.15;;;1.33;;
26806;SDS011;14380;49.910;6.792;2023-02-28T00:57:37;2.60;;;1.35;;
26806;SDS011;14380;49.910;6.792;2023-02-28T01:00:04;3.97;;;1.42;;
26806;SDS011;14380;49.910;6.792;2023-02-28T01:02:33;5.80;;;1.70;;
26806;SDS011;14380;49.910;6.792;2023-02-28T01:05:00;3.50;;;1.40;;
26806;SDS011;14380;49.910;6.792;2023-02-28T01:07:27;2.28;;;1.38;;
26806;SDS011;14380;49.910;6.792;2023-02-28T01:09:54;2.80;;;1.17;;
26806;SDS011;14380;49.910;6.792;2023-02-28T01:12:21;2.22;;;1.45;;
26806;SDS011;14380;49.910;6.792;2023-02-28T01:14:47;3.00;;;1.20;;
26806;SDS011;14380;49.910;6.792;2023-02-28T01:17:14;1.73;;;1.30;;
26806;SDS011;14380;49.910;6.792;2023-02-28T01:19:42;2.28;;;1.27;;
26806;SDS011;14380;49.910;6.792;2023-02-28T01:22:09;1.80;;;1.30;;
26806;SDS011;14380;49.910;6.792;2023-02-28T01:24:37;3.13;;;1.50;;
26806;SDS011;14380;49.910;6.792;2023-02-28T01:27:03;2.83;;;1.30;;
26806;SDS011;14380;49.910;6.792;2023-02-28T01:29:30;3.03;;;1.30;;
26806;SDS011;14380;49.910;6.792;2023-02-28T01:31:57;3.15;;;1.60;;
26806;SDS011;14380;49.910;6.792;2023-02-28T01:34:24;2.08;;;1.17;;
26806;SDS011;14380;49.910;6.792;2023-02-28T01:36:52;8.43;;;1.70;;
26806;SDS011;14380;49.910;6.792;2023-02-28T01:39:19;2.13;;;1.40;;
26806;SDS011;14380;49.910;6.792;2023-02-28T01:41:46;5.35;;;2.75;;
26806;SDS011;14380;49.910;6.792;2023-02-28T01:47:17;1.80;;;1.23;;
26806;SDS011;14380;49.910;6.792;2023-02-28T01:49:44;3.70;;;1.30;;
26806;SDS011;14380;49.910;6.792;2023-02-28T01:52:12;2.15;;;1.13;;
26806;SDS011;14380;49.910;6.792;2023-02-28T01:54:43;3.28;;;1.30;;
26806;SDS011;14380;49.910;6.792;2023-02-28T01:57:14;2.72;;;1.33;;
26806;SDS011;14380;49.910;6.792;2023-02-28T01:59:44;2.60;;;1.17;;
26806;SDS011;14380;49.910;6.792;2023-02-28T02:02:15;3.97;;;1.90;;
26806;SDS011;14380;49.910;6.792;2023-02-28T02:04:46;3.95;;;1.63;;
26806;SDS011;14380;49.910;6.792;2023-02-28T02:07:20;3.33;;;1.80;;
26806;SDS011;14380;49.910;6.792;2023-02-28T02:09:48;2.05;;;1.40;;
26806;SDS011;14380;49.910;6.792;2023-02-28T02:15:05;2.45;;;1.50;;
26806;SDS011;14380;49.910;6.792;2023-02-28T02:17:38;5.78;;;1.90;;
26806;SDS011;14380;49.910;6.792;2023-02-28T02:20:27;6.72;;;1.92;;
26806;SDS011;14380;49.910;6.792;2023-02-28T02:23:17;4.25;;;2.00;;
26806;SDS011;14380;49.910;6.792;2023-02-28T02:25:55;4.18;;;1.88;;
26806;SDS011;14380;49.910;6.792;2023-02-28T02:28:31;4.85;;;1.95;;
26806;SDS011;14380;49.910;6.792;2023-02-28T02:31:23;4.95;;;1.60;;
26806;SDS011;14380;49.910;6.792;2023-02-28T02:34:13;6.95;;;3.20;;
26806;SDS011;14380;49.910;6.792;2023-02-28T02:37:13;5.57;;;2.60;;
26806;SDS011;14380;49.910;6.792;2023-02-28T02:39:47;4.30;;;2.17;;
26806;SDS011;14380;49.910;6.792;2023-02-28T02:42:21;4.93;;;2.40;;
26806;SDS011;14380;49.910;6.792;2023-02-28T02:44:52;5.07;;;2.28;;
26806;SDS011;14380;49.910;6.792;2023-02-28T02:47:26;3.58;;;2.10;;
26806;SDS011;14380;49.910;6.792;2023-02-28T02:49:57;3.30;;;2.10;;
26806;SDS011;14380;49.910;6.792;2023-02-28T02:52:31;3.42;;;2.20;;
26806;SDS011;14380;49.910;6.792;2023-02-28T02:55:02;7.10;;;2.70;;
26806;SDS011;14380;49.910;6.792;2023-02-28T02:57:33;4.13;;;2.70;;
26806;SDS011;14380;49.910;6.792;2023-02-28T03:00:05;3.80;;;2.83;;
26806;SDS011;14380;49.910;6.792;2023-02-28T03:02:34;6.75;;;3.40;;
26806;SDS011;14380;49.910;6.792;2023-02-28T03:05:04;5.13;;;3.08;;
26806;SDS011;14380;49.910;6.792;2023-02-28T03:07:35;6.88;;;3.10;;
26806;SDS011;14380;49.910;6.792;2023-02-28T03:10:01;4.72;;;2.92;;
26806;SDS011;14380;49.910;6.792;2023-02-28T03:12:33;7.63;;;3.42;;
26806;SDS011;14380;49.910;6.792;2023-02-28T03:15:08;4.55;;;3.45;;
26806;SDS011;14380;49.910;6.792;2023-02-28T03:17:52;7.50;;;3.58;;
26806;SDS011;14380;49.910;6.792;2023-02-28T03:20:33;7.47;;;3.45;;
26806;SDS011;14380;49.910;6.792;2023-02-28T03:23:11;6.57;;;3.70;;
26806;SDS011;14380;49.910;6.792;2023-02-28T03:25:45;8.80;;;3.83;;
26806;SDS011;14380;49.910;6.792;2023-02-28T03:28:22;6.97;;;3.95;;
26806;SDS011;14380;49.910;6.792;2023-02-28T03:30:59;6.88;;;4.30;;
26806;SDS011;14380;49.910;6.792;2023-02-28T03:33:30;7.88;;;4.72;;
26806;SDS011;14380;49.910;6.792;2023-02-28T03:36:04;5.68;;;3.80;;
26806;SDS011;14380;49.910;6.792;2023-02-28T03:38:38;8.05;;;5.05;;
26806;SDS011;14380;49.910;6.792;2023-02-28T03:41:11;6.90;;;4.57;;
26806;SDS011;14380;49.910;6.792;2023-02-28T03:43:42;6.15;;;4.68;;
26806;SDS011;14380;49.910;6.792;2023-02-28T03:46:15;9.32;;;5.78;;
26806;SDS011;14380;49.910;6.792;2023-02-28T03:48:48;7.22;;;4.88;;
26806;SDS011;14380;49.910;6.792;2023-02-28T03:51:23;7.90;;;5.00;;
26806;SDS011;14380;49.910;6.792;2023-02-28T03:53:53;7.93;;;4.50;;
26806;SDS011;14380;49.910;6.792;2023-02-28T03:56:24;7.45;;;4.63;;
26806;SDS011;14380;49.910;6.792;2023-02-28T03:58:58;6.50;;;5.13;;
26806;SDS011;14380;49.910;6.792;2023-02-28T04:01:30;7.65;;;5.22;;
26806;SDS011;14380;49.910;6.792;2023-02-28T04:04:01;9.60;;;4.88;;
26806;SDS011;14380;49.910;6.792;2023-02-28T04:06:31;7.03;;;4.65;;
26806;SDS011;14380;49.910;6.792;2023-02-28T04:08:59;8.48;;;5.10;;
26806;SDS011;14380;49.910;6.792;2023-02-28T04:11:27;8.57;;;4.95;;
26806;SDS011;14380;49.910;6.792;2023-02-28T04:13:59;9.65;;;5.28;;
26806;SDS011;14380;49.910;6.792;2023-02-28T04:16:27;9.35;;;5.43;;
26806;SDS011;14380;49.910;6.792;2023-02-28T04:18:54;11.48;;;6.57;;
26806;SDS011;14380;49.910;6.792;2023-02-28T04:21:26;7.45;;;5.28;;
26806;SDS011;14380;49.910;6.792;2023-02-28T04:23:55;7.68;;;5.63;;
26806;SDS011;14380;49.910;6.792;2023-02-28T04:26:25;8.20;;;5.25;;
26806;SDS011;14380;49.910;6.792;2023-02-28T04:28:54;8.38;;;5.55;;
26806;SDS011;14380;49.910;6.792;2023-02-28T04:31:21;10.27;;;6.50;;
26806;SDS011;14380;49.910;6.792;2023-02-28T04:33:48;10.63;;;6.18;;
26806;SDS011;14380;49.910;6.792;2023-02-28T04:36:15;9.43;;;5.68;;
26806;SDS011;14380;49.910;6.792;2023-02-28T04:38:42;10.88;;;6.22;;
26806;SDS011;14380;49.910;6.792;2023-02-28T04:41:11;9.88;;;5.60;;
26806;SDS011;14380;49.910;6.792;2023-02-28T04:43:38;9.57;;;6.20;;
26806;SDS011;14380;49.910;6.792;2023-02-28T04:46:05;10.52;;;6.35;;
26806;SDS011;14380;49.910;6.792;2023-02-28T04:48:33;8.35;;;5.63;;
26806;SDS011;14380;49.910;6.792;2023-02-28T04:51:00;10.55;;;6.30;;
26806;SDS011;14380;49.910;6.792;2023-02-28T04:53:28;10.35;;;6.10;;
26806;SDS011;14380;49.910;6.792;2023-02-28T04:55:55;9.23;;;6.55;;
26806;SDS011;14380;49.910;6.792;2023-02-28T04:58:24;11.77;;;8.23;;
26806;SDS011;14380;49.910;6.792;2023-02-28T05:00:51;9.98;;;6.50;;
26806;SDS011;14380;49.910;6.792;2023-02-28T05:03:19;12.48;;;6.30;;
26806;SDS011;14380;49.910;6.792;2023-02-28T05:05:48;12.60;;;6.45;;
26806;SDS011;14380;49.910;6.792;2023-02-28T05:08:17;11.38;;;6.97;;
26806;SDS011;14380;49.910;6.792;2023-02-28T05:10:44;11.25;;;6.75;;
26806;SDS011;14380;49.910;6.792;2023-02-28T05:13:11;9.98;;;6.45;;
26806;SDS011;14380;49.910;6.792;2023-02-28T05:15:40;8.02;;;6.05;;
26806;SDS011;14380;49.910;6.792;2023-02-28T05:18:07;12.15;;;6.63;;
26806;SDS011;14380;49.910;6.792;2023-02-28T05:20:34;12.68;;;6.20;;
26806;SDS011;14380;49.910;6.792;2023-02-28T05:23:02;9.88;;;6.55;;
26806;SDS011;14380;49.910;6.792;2023-02-28T05:25:29;11.40;;;7.25;;
26806;SDS011;14380;49.910;6.792;2023-02-28T05:27:56;10.18;;;6.15;;
26806;SDS011;14380;49.910;6.792;2023-02-28T05:30:23;9.20;;;6.30;;
26806;SDS011;14380;49.910;6.792;2023-02-28T05:32:51;9.50;;;6.03;;
26806;SDS011;14380;49.910;6.792;2023-02-28T05:35:18;8.10;;;5.57;;
26806;SDS011;14380;49.910;6.792;2023-02-28T05:37:44;12.32;;;6.13;;
26806;SDS011;14380;49.910;6.792;2023-02-28T05:40:11;9.40;;;5.82;;
26806;SDS011;14380;49.910;6.792;2023-02-28T05:42:39;11.10;;;6.55;;
26806;SDS011;14380;49.910;6.792;2023-02-28T05:45:07;9.32;;;6.47;;
26806;SDS011;14380;49.910;6.792;2023-02-28T05:47:34;9.73;;;5.75;;
26806;SDS011;14380;49.910;6.792;2023-02-28T05:50:03;8.15;;;6.10;;
26806;SDS011;14380;49.910;6.792;2023-02-28T05:52:31;11.77;;;6.50;;
26806;SDS011;14380;49.910;6.792;2023-02-28T05:54:58;10.60;;;6.18;;
26806;SDS011;14380;49.910;6.792;2023-02-28T05:57:25;9.93;;;5.90;;
26806;SDS011;14380;49.910;6.792;2023-02-28T05:59:52;13.07;;;6.45;;
26806;SDS011;14380;49.910;6.792;2023-02-28T06:02:18;10.02;;;7.07;;
26806;SDS011;14380;49.910;6.792;2023-02-28T06:04:45;8.60;;;6.63;;
26806;SDS011;14380;49.910;6.792;2023-02-28T06:07:13;11.18;;;7.57;;
26806;SDS011;14380;49.910;6.792;2023-02-28T06:09:42;11.75;;;7.50;;
26806;SDS011;14380;49.910;6.792;2023-02-28T06:12:09;11.82;;;6.97;;
26806;SDS011;14380;49.910;6.792;2023-02-28T06:14:36;12.23;;;7.28;;
26806;SDS011;14380;49.910;6.792;2023-02-28T06:17:03;14.40;;;7.95;;
26806;SDS011;14380;49.910;6.792;2023-02-28T06:19:30;13.02;;;8.32;;
26806;SDS011;14380;49.910;6.792;2023-02-28T06:21:58;11.13;;;7.10;;
26806;SDS011;14380;49.910;6.792;2023-02-28T06:24:27;9.80;;;6.03;;
26806;SDS011;14380;49.910;6.792;2023-02-28T06:26:55;10.48;;;7.00;;
26806;SDS011;14380;49.910;6.792;2023-02-28T06:29:23;12.25;;;7.45;;
26806;SDS011;14380;49.910;6.792;2023-02-28T06:31:50;10.13;;;7.57;;
26806;SDS011;14380;49.910;6.792;2023-02-28T06:34:17;14.73;;;7.70;;
26806;SDS011;14380;49.910;6.792;2023-02-28T06:36:44;11.93;;;7.55;;
26806;SDS011;14380;49.910;6.792;2023-02-28T06:39:11;15.13;;;6.72;;
26806;SDS011;14380;49.910;6.792;2023-02-28T06:41:39;11.48;;;7.03;;
26806;SDS011;14380;49.910;6.792;2023-02-28T06:44:09;10.90;;;6.70;;
26806;SDS011;14380;49.910;6.792;2023-02-28T06:46:38;10.75;;;6.55;;
26806;SDS011;14380;49.910;6.792;2023-02-28T06:49:06;9.43;;;6.50;;
26806;SDS011;14380;49.910;6.792;2023-02-28T06:51:35;11.30;;;7.03;;
26806;SDS011;14380;49.910;6.792;2023-02-28T06:54:02;8.73;;;6.18;;
26806;SDS011;14380;49.910;6.792;2023-02-28T06:56:29;9.65;;;6.78;;
26806;SDS011;14380;49.910;6.792;2023-02-28T06:58:59;11.13;;;7.30;;
26806;SDS011;14380;49.910;6.792;2023-02-28T07:01:26;10.30;;;7.07;;
26806;SDS011;14380;49.910;6.792;2023-02-28T07:03:53;10.68;;;6.80;;
26806;SDS011;14380;49.910;6.792;2023-02-28T07:06:20;10.25;;;6.18;;
26806;SDS011;14380;49.910;6.792;2023-02-28T07:08:48;9.90;;;6.65;;
26806;SDS011;14380;49.910;6.792;2023-02-28T07:11:15;9.10;;;6.07;;
26806;SDS011;14380;49.910;6.792;2023-02-28T07:13:42;11.05;;;6.15;;
26806;SDS011;14380;49.910;6.792;2023-02-28T07:16:11;10.50;;;6.47;;
26806;SDS011;14380;49.910;6.792;2023-02-28T07:18:38;8.02;;;6.20;;
26806;SDS011;14380;49.910;6.792;2023-02-28T07:21:06;14.43;;;6.15;;
26806;SDS011;14380;49.910;6.792;2023-02-28T07:23:34;12.85;;;6.78;;
26806;SDS011;14380;49.910;6.792;2023-02-28T07:26:03;9.25;;;6.20;;
26806;SDS011;14380;49.910;6.792;2023-02-28T07:28:30;8.48;;;5.97;;
26806;SDS011;14380;49.910;6.792;2023-02-28T07:30:57;9.38;;;6.15;;
26806;SDS011;14380;49.910;6.792;2023-02-28T07:33:25;11.13;;;6.47;;
26806;SDS011;14380;49.910;6.792;2023-02-28T07:35:52;9.68;;;5.97;;
26806;SDS011;14380;49.910;6.792;2023-02-28T07:38:18;9.30;;;5.70;;
26806;SDS011;14380;49.910;6.792;2023-02-28T07:40:45;11.50;;;6.13;;
26806;SDS011;14380;49.910;6.792;2023-02-28T07:43:12;7.28;;;4.28;;
26806;SDS011;14380;49.910;6.792;2023-02-28T07:45:39;9.57;;;6.22;;
26806;SDS011;14380;49.910;6.792;2023-02-28T07:48:05;11.00;;;6.03;;
26806;SDS011;14380;49.910;6.792;2023-02-28T07:50:36;7.75;;;5.97;;
26806;SDS011;14380;49.910;6.792;2023-02-28T07:53:03;10.32;;;6.25;;
26806;SDS011;14380;49.910;6.792;2023-02-28T07:55:30;11.68;;;6.53;;
26806;SDS011;14380;49.910;6.792;2023-02-28T07:57:57;9.75;;;6.07;;
26806;SDS011;14380;49.910;6.792;2023-02-28T08:00:24;12.85;;;5.38;;
26806;SDS011;14380;49.910;6.792;2023-02-28T08:02:51;12.43;;;5.75;;
26806;SDS011;14380;49.910;6.792;2023-02-28T08:05:18;8.77;;;6.20;;
26806;SDS011;14380;49.910;6.792;2023-02-28T08:07:46;11.30;;;6.38;;
26806;SDS011;14380;49.910;6.792;2023-02-28T08:10:15;9.00;;;5.72;;
26806;SDS011;14380;49.910;6.792;2023-02-28T08:12:42;8.65;;;5.45;;
26806;SDS011;14380;49.910;6.792;2023-02-28T08:15:09;12.05;;;6.13;;
26806;SDS011;14380;49.910;6.792;2023-02-28T08:17:36;7.90;;;5.90;;
26806;SDS011;14380;49.910;6.792;2023-02-28T08:20:03;10.88;;;5.68;;
26806;SDS011;14380;49.910;6.792;2023-02-28T08:22:30;6.80;;;5.22;;
26806;SDS011;14380;49.910;6.792;2023-02-28T08:24:58;8.82;;;5.43;;
26806;SDS011;14380;49.910;6.792;2023-02-28T08:27:25;8.15;;;5.35;;
26806;SDS011;14380;49.910;6.792;2023-02-28T08:29:52;6.85;;;4.80;;
26806;SDS011;14380;49.910;6.792;2023-02-28T08:32:18;7.07;;;5.22;;
26806;SDS011;14380;49.910;6.792;2023-02-28T08:34:45;11.57;;;5.82;;
26806;SDS011;14380;49.910;6.792;2023-02-28T08:37:12;8.35;;;5.05;;
26806;SDS011;14380;49.910;6.792;2023-02-28T08:39:39;9.50;;;5.18;;
26806;SDS011;14380;49.910;6.792;2023-02-28T08:42:07;6.90;;;4.70;;
26806;SDS011;14380;49.910;6.792;2023-02-28T08:44:34;6.60;;;5.05;;
26806;SDS011;14380;49.910;6.792;2023-02-28T08:47:01;7.35;;;4.63;;
26806;SDS011;14380;49.910;6.792;2023-02-28T08:49:27;6.72;;;4.80;;
26806;SDS011;14380;49.910;6.792;2023-02-28T08:51:54;11.75;;;7.25;;
26806;SDS011;14380;49.910;6.792;2023-02-28T08:54:22;8.45;;;5.32;;
26806;SDS011;14380;49.910;6.792;2023-02-28T08:56:49;7.93;;;5.32;;
26806;SDS011;14380;49.910;6.792;2023-02-28T08:59:17;7.57;;;4.72;;
26806;SDS011;14380;49.910;6.792;2023-02-28T09:01:44;7.28;;;4.93;;
26806;SDS011;14380;49.910;6.792;2023-02-28T09:04:11;6.85;;;4.65;;
26806;SDS011;14380;49.910;6.792;2023-02-28T09:06:38;5.07;;;4.15;;
26806;SDS011;14380;49.910;6.792;2023-02-28T09:09:04;6.80;;;4.55;;
26806;SDS011;14380;49.910;6.792;2023-02-28T09:11:32;7.28;;;4.75;;
26806;SDS011;14380;49.910;6.792;2023-02-28T09:14:00;5.43;;;4.05;;
26806;SDS011;14380;49.910;6.792;2023-02-28T09:16:29;5.57;;;4.15;;
26806;SDS011;14380;49.910;6.792;2023-02-28T09:18:57;8.73;;;4.10;;
26806;SDS011;14380;49.910;6.792;2023-02-28T09:21:25;4.45;;;3.58;;
26806;SDS011;14380;49.910;6.792;2023-02-28T09:23:52;7.60;;;3.83;;
26806;SDS011;14380;49.910;6.792;2023-02-28T09:26:19;5.00;;;3.17;;
26806;SDS011;14380;49.910;6.792;2023-02-28T09:28:47;7.57;;;3.50;;
26806;SDS011;14380;49.910;6.792;2023-02-28T09:31:15;5.97;;;3.53;;
26806;SDS011;14380;49.910;6.792;2023-02-28T09:33:47;6.18;;;3.22;;
26806;SDS011;14380;49.910;6.792;2023-02-28T09:36:14;7.38;;;3.78;;
26806;SDS011;14380;49.910;6.792;2023-02-28T09:38:41;5.72;;;3.40;;
26806;SDS011;14380;49.910;6.792;2023-02-28T09:41:11;5.20;;;3.88;;
26806;SDS011;14380;49.910;6.792;2023-02-28T09:43:43;3.70;;;2.83;;
26806;SDS011;14380;49.910;6.792;2023-02-28T09:46:14;4.80;;;3.25;;
26806;SDS011;14380;49.910;6.792;2023-02-28T09:48:51;3.95;;;2.60;;
26806;SDS011;14380;49.910;6.792;2023-02-28T09:51:26;4.80;;;3.10;;
26806;SDS011;14380;49.910;6.792;2023-02-28T09:53:59;5.50;;;3.63;;
26806;SDS011;14380;49.910;6.792;2023-02-28T09:56:27;4.70;;;3.05;;
26806;SDS011;14380;49.910;6.792;2023-02-28T09:59:00;4.47;;;3.05;;
26806;SDS011;14380;49.910;6.792;2023-02-28T10:01:33;5.30;;;3.53;;
26806;SDS011;14380;49.910;6.792;2023-02-28T10:04:08;5.30;;;2.67;;
26806;SDS011;14380;49.910;6.792;2023-02-28T10:06:44;4.78;;;3.10;;
26806;SDS011;14380;49.910;6.792;2023-02-28T10:09:15;5.65;;;3.65;;
26806;SDS011;14380;49.910;6.792;2023-02-28T10:11:47;4.60;;;3.13;;
26806;SDS011;14380;49.910;6.792;2023-02-28T10:14:17;5.75;;;3.70;;
26806;SDS011;14380;49.910;6.792;2023-02-28T10:16:46;5.55;;;3.60;;
26806;SDS011;14380;49.910;6.792;2023-02-28T10:19:20;6.93;;;3.70;;
26806;SDS011;14380;49.910;6.792;2023-02-28T10:21:55;4.88;;;3.33;;
26806;SDS011;14380;49.910;6.792;2023-02-28T10:24:26;7.57;;;4.05;;
26806;SDS011;14380;49.910;6.792;2023-02-28T10:26:59;7.75;;;3.55;;
26806;SDS011;14380;49.910;6.792;2023-02-28T10:29:27;5.03;;;3.45;;
26806;SDS011;14380;49.910;6.792;2023-02-28T10:31:59;6.53;;;3.58;;
26806;SDS011;14380;49.910;6.792;2023-02-28T10:34:31;4.78;;;3.30;;
26806;SDS011;14380;49.910;6.792;2023-02-28T10:36:57;4.80;;;3.50;;
26806;SDS011;14380;49.910;6.792;2023-02-28T10:39:35;4.95;;;3.55;;
26806;SDS011;14380;49.910;6.792;2023-02-28T10:42:03;4.72;;;3.53;;
26806;SDS011;14380;49.910;6.792;2023-02-28T10:44:31;5.00;;;3.63;;
26806;SDS011;14380;49.910;6.792;2023-02-28T10:46:58;5.25;;;3.67;;
26806;SDS011;14380;49.910;6.792;2023-02-28T10:49:26;5.82;;;3.60;;
26806;SDS011;14380;49.910;6.792;2023-02-28T10:51:56;5.50;;;3.88;;
26806;SDS011;14380;49.910;6.792;2023-02-28T10:54:27;6.82;;;3.88;;
26806;SDS011;14380;49.910;6.792;2023-02-28T10:57:06;4.43;;;3.10;;
26806;SDS011;14380;49.910;6.792;2023-02-28T10:59:40;8.70;;;3.35;;
26806;SDS011;14380;49.910;6.792;2023-02-28T11:04:57;5.10;;;3.72;;
26806;SDS011;14380;49.910;6.792;2023-02-28T11:07:25;5.68;;;3.85;;
26806;SDS011;14380;49.910;6.792;2023-02-28T11:09:53;5.15;;;3.78;;
26806;SDS011;14380;49.910;6.792;2023-02-28T11:12:22;6.05;;;4.13;;
26806;SDS011;14380;49.910;6.792;2023-02-28T11:14:51;5.07;;;3.67;;
26806;SDS011;14380;49.910;6.792;2023-02-28T11:17:21;5.15;;;3.53;;
26806;SDS011;14380;49.910;6.792;2023-02-28T11:19:51;5.28;;;3.67;;
26806;SDS011;14380;49.910;6.792;2023-02-28T11:22:20;6.10;;;3.70;;
26806;SDS011;14380;49.910;6.792;2023-02-28T11:24:52;4.88;;;4.15;;
26806;SDS011;14380;49.910;6.792;2023-02-28T11:27:25;5.38;;;3.78;;
26806;SDS011;14380;49.910;6.792;2023-02-28T11:30:11;6.30;;;3.70;;
26806;SDS011;14380;49.910;6.792;2023-02-28T11:32:50;6.85;;;3.72;;
26806;SDS011;14380;49.910;6.792;2023-02-28T11:35:18;3.90;;;3.40;;
26806;SDS011;14380;49.910;6.792;2023-02-28T11:37:50;6.45;;;3.78;;
26806;SDS011;14380;49.910;6.792;2023-02-28T11:40:22;4.32;;;3.47;;
26806;SDS011;14380;49.910;6.792;2023-02-28T11:45:43;5.60;;;3.60;;
26806;SDS011;14380;49.910;6.792;2023-02-28T11:48:18;8.95;;;3.97;;
26806;SDS011;14380;49.910;6.792;2023-02-28T11:50:52;7.82;;;3.75;;
26806;SDS011;14380;49.910;6.792;2023-02-28T11:53:41;4.93;;;3.65;;
26806;SDS011;14380;49.910;6.792;2023-02-28T11:56:21;7.70;;;3.92;;
26806;SDS011;14380;49.910;6.792;2023-02-28T11:58:55;4.78;;;3.83;;
26806;SDS011;14380;49.910;6.792;2023-02-28T12:01:42;5.22;;;3.33;;
26806;SDS011;14380;49.910;6.792;2023-02-28T12:04:25;4.05;;;3.13;;
26806;SDS011;14380;49.910;6.792;2023-02-28T12:07:03;6.70;;;3.67;;
26806;SDS011;14380;49.910;6.792;2023-02-28T12:09:40;4.57;;;3.20;;
26806;SDS011;14380;49.910;6.792;2023-02-28T12:12:18;4.45;;;3.42;;
26806;SDS011;14380;49.910;6.792;2023-02-28T12:17:49;6.07;;;3.60;;
26806;SDS011;14380;49.910;6.792;2023-02-28T12:20:25;5.55;;;3.70;;
26806;SDS011;14380;49.910;6.792;2023-02-28T12:23:00;5.85;;;3.70;;
26806;SDS011;14380;49.910;6.792;2023-02-28T12:25:48;5.07;;;3.72;;
26806;SDS011;14380;49.910;6.792;2023-02-28T12:28:25;7.55;;;3.80;;
26806;SDS011;14380;49.910;6.792;2023-02-28T12:30:56;4.68;;;3.85;;
26806;SDS011;14380;49.910;6.792;2023-02-28T12:33:28;4.28;;;3.35;;
26806;SDS011;14380;49.910;6.792;2023-02-28T12:36:03;4.32;;;3.17;;
26806;SDS011;14380;49.910;6.792;2023-02-28T12:38:36;5.03;;;3.53;;
26806;SDS011;14380;49.910;6.792;2023-02-28T12:41:09;3.42;;;2.97;;
26806;SDS011;14380;49.910;6.792;2023-02-28T12:43:42;4.80;;;3.55;;
26806;SDS011;14380;49.910;6.792;2023-02-28T12:46:12;6.25;;;3.42;;
26806;SDS011;14380;49.910;6.792;2023-02-28T12:48:44;4.82;;;3.28;;
26806;SDS011;14380;49.910;6.792;2023-02-28T12:51:15;4.85;;;3.60;;
26806;SDS011;14380;49.910;6.792;2023-02-28T12:53:48;5.07;;;3.30;;
26806;SDS011;14380;49.910;6.792;2023-02-28T12:56:22;4.55;;;3.92;;
26806;SDS011;14380;49.910;6.792;2023-02-28T12:59:02;4.93;;;3.60;;
26806;SDS011;14380;49.910;6.792;2023-02-28T13:01:46;6.13;;;3.05;;
26806;SDS011;14380;49.910;6.792;2023-02-28T13:07:29;4.88;;;3.53;;
26806;SDS011;14380;49.910;6.792;2023-02-28T13:10:24;5.40;;;3.80;;
26806;SDS011;14380;49.910;6.792;2023-02-28T13:13:05;7.78;;;3.53;;
26806;SDS011;14380;49.910;6.792;2023-02-28T13:15:33;5.78;;;3.83;;
26806;SDS011;14380;49.910;6.792;2023-02-28T13:18:20;6.32;;;3.70;;
26806;SDS011;14380;49.910;6.792;2023-02-28T13:20:54;4.90;;;3.88;;
26806;SDS011;14380;49.910;6.792;2023-02-28T13:23:38;5.55;;;3.90;;
26806;SDS011;14380;49.910;6.792;2023-02-28T13:26:07;4.73;;;3.47;;
26806;SDS011;14380;49.910;6.792;2023-02-28T13:35:13;5.75;;;3.45;;
26806;SDS011;14380;49.910;6.792;2023-02-28T13:37:42;4.82;;;3.47;;
26806;SDS011;14380;49.910;6.792;2023-02-28T13:43:02;7.72;;;3.97;;
26806;SDS011;14380;49.910;6.792;2023-02-28T13:45:30;6.07;;;3.90;;
26806;SDS011;14380;49.910;6.792;2023-02-28T13:48:04;5.70;;;4.03;;
26806;SDS011;14380;49.910;6.792;2023-02-28T13:50:43;4.75;;;3.90;;
26806;SDS011;14380;49.910;6.792;2023-02-28T13:56:07;6.10;;;3.85;;
26806;SDS011;14380;49.910;6.792;2023-02-28T13:58:48;5.35;;;4.00;;
26806;SDS011;14380;49.910;6.792;2023-02-28T14:01:37;6.03;;;4.05;;
26806;SDS011;14380;49.910;6.792;2023-02-28T14:07:24;5.53;;;4.28;;
26806;SDS011;14380;49.910;6.792;2023-02-28T14:09:57;7.80;;;4.82;;
26806;SDS011;14380;49.910;6.792;2023-02-28T14:18:24;6.63;;;3.90;;
26806;SDS011;14380;49.910;6.792;2023-02-28T14:20:55;6.05;;;4.38;;
26806;SDS011;14380;49.910;6.792;2023-02-28T14:26:18;5.55;;;3.97;;
26806;SDS011;14380;49.910;6.792;2023-02-28T14:29:00;7.63;;;4.20;;
26806;SDS011;14380;49.910;6.792;2023-02-28T14:31:41;4.90;;;3.90;;
26806;SDS011;14380;49.910;6.792;2023-02-28T14:34:21;6.88;;;4.90;;
26806;SDS011;14380;49.910;6.792;2023-02-28T14:36:58;7.10;;;4.47;;
26806;SDS011;14380;49.910;6.792;2023-02-28T14:39:29;7.88;;;4.53;;
26806;SDS011;14380;49.910;6.792;2023-02-28T14:41:57;6.95;;;4.50;;
26806;SDS011;14380;49.910;6.792;2023-02-28T14:44:28;5.47;;;3.95;;
26806;SDS011;14380;49.910;6.792;2023-02-28T14:46:55;7.65;;;5.00;;
26806;SDS011;14380;49.910;6.792;2023-02-28T14:49:25;9.05;;;5.30;;
26806;SDS011;14380;49.910;6.792;2023-02-28T14:52:01;8.23;;;5.25;;
26806;SDS011;14380;49.910;6.792;2023-02-28T14:54:36;9.35;;;4.78;;
26806;SDS011;14380;49.910;6.792;2023-02-28T14:57:04;7.53;;;4.82;;
26806;SDS011;14380;49.910;6.792;2023-02-28T14:59:31;7.75;;;4.47;;
26806;SDS011;14380;49.910;6.792;2023-02-28T15:04:44;7.32;;;4.45;;
26806;SDS011;14380;49.910;6.792;2023-02-28T15:07:19;6.15;;;4.57;;
26806;SDS011;14380;49.910;6.792;2023-02-28T15:10:07;8.85;;;5.18;;
26806;SDS011;14380;49.910;6.792;2023-02-28T15:12:41;7.10;;;4.78;;
26806;SDS011;14380;49.910;6.792;2023-02-28T15:15:15;8.48;;;5.22;;
26806;SDS011;14380;49.910;6.792;2023-02-28T15:17:43;8.52;;;4.95;;
26806;SDS011;14380;49.910;6.792;2023-02-28T15:20:13;7.70;;;5.55;;
26806;SDS011;14380;49.910;6.792;2023-02-28T15:22:43;6.63;;;5.13;;
26806;SDS011;14380;49.910;6.792;2023-02-28T15:25:15;8.45;;;6.13;;
26806;SDS011;14380;49.910;6.792;2023-02-28T15:27:46;5.70;;;4.45;;
26806;SDS011;14380;49.910;6.792;2023-02-28T15:30:17;7.70;;;5.22;;
26806;SDS011;14380;49.910;6.792;2023-02-28T15:33:01;8.80;;;5.55;;
26806;SDS011;14380;49.910;6.792;2023-02-28T15:35:31;7.93;;;5.35;;
26806;SDS011;14380;49.910;6.792;2023-02-28T15:38:00;10.52;;;5.30;;
26806;SDS011;14380;49.910;6.792;2023-02-28T15:40:31;7.60;;;5.47;;
26806;SDS011;14380;49.910;6.792;2023-02-28T15:43:05;7.10;;;5.25;;
26806;SDS011;14380;49.910;6.792;2023-02-28T15:45:35;7.63;;;5.97;;
26806;SDS011;14380;49.910;6.792;2023-02-28T15:48:09;6.80;;;5.32;;
26806;SDS011;14380;49.910;6.792;2023-02-28T15:50:42;10.13;;;5.28;;